sensor_id;sensor_type;location;lat;lon;timestamp;P1;durP1;ratioP1;P2;durP2;ratioP2
1454;SDS011;721;48.168;12.818;2023-07-20T00:01:50;3.50;;;2.63;;
1454;SDS011;721;48.168;12.818;2023-07-20T00:04:17;2.20;;;2.00;;
1454;SDS011;721;48.168;12.818;2023-07-20T00:06:43;2.87;;;1.83;;
1454;SDS011;721;48.168;12.818;2023-07-20T00:09:12;2.23;;;2.00;;
1454;SDS011;721;48.168;12.818;2023-07-20T00:11:39;2.30;;;2.17;;
1454;SDS011;721;48.168;12.818;2023-07-20T00:14:06;2.27;;;2.07;;
1454;SDS011;721;48.168;12.818;2023-07-20T00:16:33;3.63;;;2.10;;
1454;SDS011;721;48.168;12.818;2023-07-20T00:18:59;2.60;;;2.13;;
1454;SDS011;721;48.168;12.818;2023-07-20T00:21:26;2.30;;;2.10;;
1454;SDS011;721;48.168;12.818;2023-07-20T00:23:53;2.40;;;2.20;;
1454;SDS011;721;48.168;12.818;2023-07-20T00:26:21;1.93;;;1.80;;
1454;SDS011;721;48.168;12.818;2023-07-20T00:28:49;2.53;;;2.00;;
1454;SDS011;721;48.168;12.818;2023-07-20T00:31:16;2.13;;;1.93;;
1454;SDS011;721;48.168;12.818;2023-07-20T00:33:43;3.10;;;2.90;;
1454;SDS011;721;48.168;12.818;2023-07-20T00:36:10;2.50;;;2.40;;
1454;SDS011;721;48.168;12.818;2023-07-20T00:38:37;2.37;;;2.17;;
1454;SDS011;721;48.168;12.818;2023-07-20T00:41:04;12.40;;;2.67;;
1454;SDS011;721;48.168;12.818;2023-07-20T00:43:32;2.10;;;2.00;;
1454;SDS011;721;48.168;12.818;2023-07-20T00:45:59;2.23;;;1.80;;
1454;SDS011;721;48.168;12.818;2023-07-20T00:48:27;2.50;;;2.30;;
1454;SDS011;721;48.168;12.818;2023-07-20T00:50:55;2.87;;;2.57;;
1454;SDS011;721;48.168;12.818;2023-07-20T00:53:22;2.67;;;2.10;;
1454;SDS011;721;48.168;12.818;2023-07-20T00:55:49;2.73;;;2.57;;
1454;SDS011;721;48.168;12.818;2023-07-20T00:58:16;3.20;;;2.13;;
1454;SDS011;721;48.168;12.818;2023-07-20T01:00:44;3.20;;;2.90;;
1454;SDS011;721;48.168;12.818;2023-07-20T01:03:12;3.10;;;2.87;;
1454;SDS011;721;48.168;12.818;2023-07-20T01:05:40;2.93;;;2.60;;
1454;SDS011;721;48.168;12.818;2023-07-20T01:08:24;2.83;;;2.63;;
1454;SDS011;721;48.168;12.818;2023-07-20T01:10:59;2.33;;;2.13;;
1454;SDS011;721;48.168;12.818;2023-07-20T01:13:32;2.17;;;1.90;;
1454;SDS011;721;48.168;12.818;2023-07-20T01:16:01;1.60;;;1.50;;
1454;SDS011;721;48.168;12.818;2023-07-20T01:18:28;3.23;;;2.63;;
1454;SDS011;721;48.168;12.818;2023-07-20T01:20:56;2.80;;;2.27;;
1454;SDS011;721;48.168;12.818;2023-07-20T01:23:33;3.20;;;2.20;;
1454;SDS011;721;48.168;12.818;2023-07-20T01:26:23;5.27;;;1.97;;
1454;SDS011;721;48.168;12.818;2023-07-20T01:29:08;2.37;;;2.17;;
1454;SDS011;721;48.168;12.818;2023-07-20T01:31:45;2.67;;;1.97;;
1454;SDS011;721;48.168;12.818;2023-07-20T01:34:15;2.10;;;2.00;;
1454;SDS011;721;48.168;12.818;2023-07-20T01:36:44;3.73;;;2.17;;
1454;SDS011;721;48.168;12.818;2023-07-20T01:39:12;2.27;;;1.70;;
1454;SDS011;721;48.168;12.818;2023-07-20T01:41:39;2.30;;;2.00;;
1454;SDS011;721;48.168;12.818;2023-07-20T01:44:06;2.00;;;1.90;;
1454;SDS011;721;48.168;12.818;2023-07-20T01:46:33;5.53;;;2.37;;
1454;SDS011;721;48.168;12.818;2023-07-20T01:49:01;2.37;;;2.10;;
1454;SDS011;721;48.168;12.818;2023-07-20T01:51:28;2.07;;;1.90;;
1454;SDS011;721;48.168;12.818;2023-07-20T01:53:55;2.07;;;1.97;;
1454;SDS011;721;48.168;12.818;2023-07-20T01:56:22;2.10;;;1.90;;
1454;SDS011;721;48.168;12.818;2023-07-20T01:58:48;2.10;;;1.90;;
1454;SDS011;721;48.168;12.818;2023-07-20T02:01:15;1.90;;;1.80;;
1454;SDS011;721;48.168;12.818;2023-07-20T02:03:42;1.50;;;1.40;;
1454;SDS011;721;48.168;12.818;2023-07-20T02:06:10;2.10;;;1.83;;
1454;SDS011;721;48.168;12.818;2023-07-20T02:08:37;1.70;;;1.60;;
1454;SDS011;721;48.168;12.818;2023-07-20T02:11:04;3.53;;;3.23;;
1454;SDS011;721;48.168;12.818;2023-07-20T02:13:31;2.13;;;2.00;;
1454;SDS011;721;48.168;12.818;2023-07-20T02:15:57;2.07;;;1.97;;
1454;SDS011;721;48.168;12.818;2023-07-20T02:18:24;1.60;;;1.50;;
1454;SDS011;721;48.168;12.818;2023-07-20T02:20:52;1.87;;;1.77;;
1454;SDS011;721;48.168;12.818;2023-07-20T02:23:20;3.80;;;2.37;;
1454;SDS011;721;48.168;12.818;2023-07-20T02:25:47;2.20;;;2.10;;
1454;SDS011;721;48.168;12.818;2023-07-20T02:28:14;2.83;;;2.23;;
1454;SDS011;721;48.168;12.818;2023-07-20T02:30:41;2.20;;;2.00;;
1454;SDS011;721;48.168;12.818;2023-07-20T02:33:08;2.20;;;2.10;;
1454;SDS011;721;48.168;12.818;2023-07-20T02:35:35;1.70;;;1.60;;
1454;SDS011;721;48.168;12.818;2023-07-20T02:38:01;2.87;;;2.00;;
1454;SDS011;721;48.168;12.818;2023-07-20T02:40:30;1.87;;;1.70;;
1454;SDS011;721;48.168;12.818;2023-07-20T02:42:57;2.80;;;2.60;;
1454;SDS011;721;48.168;12.818;2023-07-20T02:45:24;1.70;;;1.60;;
1454;SDS011;721;48.168;12.818;2023-07-20T02:47:50;1.93;;;1.73;;
1454;SDS011;721;48.168;12.818;2023-07-20T02:50:17;2.73;;;1.90;;
1454;SDS011;721;48.168;12.818;2023-07-20T02:52:44;1.60;;;1.50;;
1454;SDS011;721;48.168;12.818;2023-07-20T02:55:11;2.40;;;2.20;;
1454;SDS011;721;48.168;12.818;2023-07-20T02:57:39;2.50;;;2.30;;
1454;SDS011;721;48.168;12.818;2023-07-20T03:00:06;1.50;;;1.40;;
1454;SDS011;721;48.168;12.818;2023-07-20T03:02:34;1.70;;;1.60;;
1454;SDS011;721;48.168;12.818;2023-07-20T03:05:01;1.70;;;1.60;;
1454;SDS011;721;48.168;12.818;2023-07-20T03:07:30;2.07;;;1.87;;
1454;SDS011;721;48.168;12.818;2023-07-20T03:09:57;2.63;;;1.73;;
1454;SDS011;721;48.168;12.818;2023-07-20T03:12:24;1.97;;;1.87;;
1454;SDS011;721;48.168;12.818;2023-07-20T03:14:53;3.50;;;2.53;;
1454;SDS011;721;48.168;12.818;2023-07-20T03:17:22;1.70;;;1.60;;
1454;SDS011;721;48.168;12.818;2023-07-20T03:19:48;2.07;;;1.87;;
1454;SDS011;721;48.168;12.818;2023-07-20T03:22:15;8.47;;;2.50;;
1454;SDS011;721;48.168;12.818;2023-07-20T03:24:42;1.80;;;1.70;;
1454;SDS011;721;48.168;12.818;2023-07-20T03:27:09;2.37;;;1.60;;
1454;SDS011;721;48.168;12.818;2023-07-20T03:29:36;2.17;;;2.07;;
1454;SDS011;721;48.168;12.818;2023-07-20T03:32:04;1.63;;;1.53;;
1454;SDS011;721;48.168;12.818;2023-07-20T03:34:31;1.70;;;1.60;;
1454;SDS011;721;48.168;12.818;2023-07-20T03:36:58;1.67;;;1.57;;
1454;SDS011;721;48.168;12.818;2023-07-20T03:39:26;1.67;;;1.57;;
1454;SDS011;721;48.168;12.818;2023-07-20T03:41:52;2.13;;;1.70;;
1454;SDS011;721;48.168;12.818;2023-07-20T03:44:19;3.47;;;2.30;;
1454;SDS011;721;48.168;12.818;2023-07-20T03:46:46;1.90;;;1.77;;
1454;SDS011;721;48.168;12.818;2023-07-20T03:49:14;2.20;;;2.00;;
1454;SDS011;721;48.168;12.818;2023-07-20T03:51:41;1.60;;;1.50;;
1454;SDS011;721;48.168;12.818;2023-07-20T03:54:07;3.90;;;1.90;;
1454;SDS011;721;48.168;12.818;2023-07-20T03:56:35;1.50;;;1.40;;
1454;SDS011;721;48.168;12.818;2023-07-20T03:59:01;1.70;;;1.60;;
1454;SDS011;721;48.168;12.818;2023-07-20T04:01:28;2.03;;;1.63;;
1454;SDS011;721;48.168;12.818;2023-07-20T04:04:01;2.03;;;1.93;;
1454;SDS011;721;48.168;12.818;2023-07-20T04:06:32;1.70;;;1.60;;
1454;SDS011;721;48.168;12.818;2023-07-20T04:08:59;1.77;;;1.60;;
1454;SDS011;721;48.168;12.818;2023-07-20T04:11:26;1.87;;;1.77;;
1454;SDS011;721;48.168;12.818;2023-07-20T04:13:53;2.20;;;1.87;;
1454;SDS011;721;48.168;12.818;2023-07-20T04:16:21;2.50;;;1.63;;
1454;SDS011;721;48.168;12.818;2023-07-20T04:18:48;1.97;;;1.77;;
1454;SDS011;721;48.168;12.818;2023-07-20T04:21:14;2.17;;;2.07;;
1454;SDS011;721;48.168;12.818;2023-07-20T04:23:43;1.53;;;1.43;;
1454;SDS011;721;48.168;12.818;2023-07-20T04:26:10;2.30;;;2.10;;
1454;SDS011;721;48.168;12.818;2023-07-20T04:28:37;2.50;;;2.33;;
1454;SDS011;721;48.168;12.818;2023-07-20T04:31:11;1.80;;;1.70;;
1454;SDS011;721;48.168;12.818;2023-07-20T04:33:38;1.40;;;1.30;;
1454;SDS011;721;48.168;12.818;2023-07-20T04:36:05;1.87;;;1.70;;
1454;SDS011;721;48.168;12.818;2023-07-20T04:38:32;2.07;;;1.97;;
1454;SDS011;721;48.168;12.818;2023-07-20T04:41:00;2.03;;;1.80;;
1454;SDS011;721;48.168;12.818;2023-07-20T04:43:28;1.50;;;1.40;;
1454;SDS011;721;48.168;12.818;2023-07-20T04:45:56;3.13;;;2.27;;
1454;SDS011;721;48.168;12.818;2023-07-20T04:48:23;1.73;;;1.63;;
1454;SDS011;721;48.168;12.818;2023-07-20T04:50:50;1.73;;;1.63;;
1454;SDS011;721;48.168;12.818;2023-07-20T04:53:17;3.60;;;3.30;;
1454;SDS011;721;48.168;12.818;2023-07-20T04:55:47;2.63;;;2.43;;
1454;SDS011;721;48.168;12.818;2023-07-20T04:58:16;3.43;;;1.93;;
1454;SDS011;721;48.168;12.818;2023-07-20T05:00:43;2.07;;;1.97;;
1454;SDS011;721;48.168;12.818;2023-07-20T05:03:10;2.10;;;1.90;;
1454;SDS011;721;48.168;12.818;2023-07-20T05:05:37;1.20;;;1.10;;
1454;SDS011;721;48.168;12.818;2023-07-20T05:08:04;1.70;;;1.60;;
1454;SDS011;721;48.168;12.818;2023-07-20T05:10:31;2.00;;;1.80;;
1454;SDS011;721;48.168;12.818;2023-07-20T05:12:58;1.90;;;1.70;;
1454;SDS011;721;48.168;12.818;2023-07-20T05:15:26;1.53;;;1.43;;
1454;SDS011;721;48.168;12.818;2023-07-20T05:17:53;2.37;;;2.17;;
1454;SDS011;721;48.168;12.818;2023-07-20T05:20:20;1.77;;;1.50;;
1454;SDS011;721;48.168;12.818;2023-07-20T05:22:46;2.10;;;1.90;;
1454;SDS011;721;48.168;12.818;2023-07-20T05:25:14;2.40;;;2.23;;
1454;SDS011;721;48.168;12.818;2023-07-20T05:27:43;2.13;;;1.93;;
1454;SDS011;721;48.168;12.818;2023-07-20T05:30:11;1.63;;;1.30;;
1454;SDS011;721;48.168;12.818;2023-07-20T05:32:39;2.77;;;1.60;;
1454;SDS011;721;48.168;12.818;2023-07-20T05:35:06;2.20;;;1.77;;
1454;SDS011;721;48.168;12.818;2023-07-20T05:37:36;2.83;;;1.80;;
1454;SDS011;721;48.168;12.818;2023-07-20T05:40:03;1.63;;;1.50;;
1454;SDS011;721;48.168;12.818;2023-07-20T05:42:31;2.10;;;1.90;;
1454;SDS011;721;48.168;12.818;2023-07-20T05:44:58;1.53;;;1.43;;
1454;SDS011;721;48.168;12.818;2023-07-20T05:47:24;2.00;;;1.37;;
1454;SDS011;721;48.168;12.818;2023-07-20T05:49:52;1.60;;;1.50;;
1454;SDS011;721;48.168;12.818;2023-07-20T05:52:19;1.90;;;1.60;;
1454;SDS011;721;48.168;12.818;2023-07-20T05:54:46;2.07;;;1.97;;
1454;SDS011;721;48.168;12.818;2023-07-20T05:57:13;1.77;;;1.63;;
1454;SDS011;721;48.168;12.818;2023-07-20T05:59:39;1.40;;;1.30;;
1454;SDS011;721;48.168;12.818;2023-07-20T06:02:09;2.97;;;1.20;;
1454;SDS011;721;48.168;12.818;2023-07-20T06:04:36;1.40;;;1.30;;
1454;SDS011;721;48.168;12.818;2023-07-20T06:07:04;7.90;;;2.60;;
1454;SDS011;721;48.168;12.818;2023-07-20T06:09:32;1.80;;;1.70;;
1454;SDS011;721;48.168;12.818;2023-07-20T06:11:59;4.00;;;2.83;;
1454;SDS011;721;48.168;12.818;2023-07-20T06:14:26;1.87;;;1.77;;
1454;SDS011;721;48.168;12.818;2023-07-20T06:16:53;1.50;;;1.40;;
1454;SDS011;721;48.168;12.818;2023-07-20T06:19:20;1.73;;;1.30;;
1454;SDS011;721;48.168;12.818;2023-07-20T06:21:48;2.40;;;1.70;;
1454;SDS011;721;48.168;12.818;2023-07-20T06:24:16;1.30;;;1.20;;
1454;SDS011;721;48.168;12.818;2023-07-20T06:26:43;1.43;;;1.33;;
1454;SDS011;721;48.168;12.818;2023-07-20T06:29:10;1.80;;;1.60;;
1454;SDS011;721;48.168;12.818;2023-07-20T06:31:37;1.57;;;1.47;;
1454;SDS011;721;48.168;12.818;2023-07-20T06:34:04;3.17;;;1.93;;
1454;SDS011;721;48.168;12.818;2023-07-20T06:36:31;1.50;;;1.40;;
1454;SDS011;721;48.168;12.818;2023-07-20T06:38:57;1.40;;;1.30;;
1454;SDS011;721;48.168;12.818;2023-07-20T06:41:26;1.40;;;1.30;;
1454;SDS011;721;48.168;12.818;2023-07-20T06:43:52;1.53;;;1.30;;
1454;SDS011;721;48.168;12.818;2023-07-20T06:46:23;1.93;;;1.73;;
1454;SDS011;721;48.168;12.818;2023-07-20T06:48:50;2.70;;;2.23;;
1454;SDS011;721;48.168;12.818;2023-07-20T06:51:17;1.67;;;1.57;;
1454;SDS011;721;48.168;12.818;2023-07-20T06:53:44;2.50;;;1.40;;
1454;SDS011;721;48.168;12.818;2023-07-20T06:56:11;1.37;;;1.27;;
1454;SDS011;721;48.168;12.818;2023-07-20T06:58:39;4.30;;;2.13;;
1454;SDS011;721;48.168;12.818;2023-07-20T07:01:06;1.30;;;1.20;;
1454;SDS011;721;48.168;12.818;2023-07-20T07:03:33;1.30;;;1.20;;
1454;SDS011;721;48.168;12.818;2023-07-20T07:06:00;1.70;;;1.60;;
1454;SDS011;721;48.168;12.818;2023-07-20T07:08:27;1.70;;;1.60;;
1454;SDS011;721;48.168;12.818;2023-07-20T07:10:53;1.73;;;1.63;;
1454;SDS011;721;48.168;12.818;2023-07-20T07:13:20;1.63;;;1.53;;
1454;SDS011;721;48.168;12.818;2023-07-20T07:15:48;1.27;;;1.17;;
1454;SDS011;721;48.168;12.818;2023-07-20T07:18:15;1.50;;;1.27;;
1454;SDS011;721;48.168;12.818;2023-07-20T07:20:49;1.53;;;1.43;;
1454;SDS011;721;48.168;12.818;2023-07-20T07:23:17;1.80;;;1.70;;
1454;SDS011;721;48.168;12.818;2023-07-20T07:25:44;1.33;;;1.23;;
1454;SDS011;721;48.168;12.818;2023-07-20T07:28:11;1.17;;;1.07;;
1454;SDS011;721;48.168;12.818;2023-07-20T07:30:38;1.43;;;1.33;;
1454;SDS011;721;48.168;12.818;2023-07-20T07:33:06;1.77;;;1.60;;
1454;SDS011;721;48.168;12.818;2023-07-20T07:35:33;1.30;;;1.20;;
1454;SDS011;721;48.168;12.818;2023-07-20T07:38:00;1.30;;;1.20;;
1454;SDS011;721;48.168;12.818;2023-07-20T07:40:27;1.40;;;1.30;;
1454;SDS011;721;48.168;12.818;2023-07-20T07:42:53;1.37;;;1.27;;
1454;SDS011;721;48.168;12.818;2023-07-20T07:45:20;1.40;;;1.30;;
1454;SDS011;721;48.168;12.818;2023-07-20T07:47:47;1.57;;;1.47;;
1454;SDS011;721;48.168;12.818;2023-07-20T07:50:15;1.57;;;1.47;;
1454;SDS011;721;48.168;12.818;2023-07-20T07:52:42;1.30;;;1.20;;
1454;SDS011;721;48.168;12.818;2023-07-20T07:55:09;1.73;;;1.63;;
1454;SDS011;721;48.168;12.818;2023-07-20T07:57:35;1.40;;;1.30;;
1454;SDS011;721;48.168;12.818;2023-07-20T08:00:02;1.70;;;1.60;;
1454;SDS011;721;48.168;12.818;2023-07-20T08:02:35;1.37;;;1.27;;
1454;SDS011;721;48.168;12.818;2023-07-20T08:05:02;4.40;;;1.40;;
1454;SDS011;721;48.168;12.818;2023-07-20T08:07:31;1.83;;;1.10;;
1454;SDS011;721;48.168;12.818;2023-07-20T08:09:57;1.30;;;1.20;;
1454;SDS011;721;48.168;12.818;2023-07-20T08:12:25;1.23;;;1.13;;
1454;SDS011;721;48.168;12.818;2023-07-20T08:14:52;1.20;;;1.10;;
1454;SDS011;721;48.168;12.818;2023-07-20T08:17:19;2.27;;;2.03;;
1454;SDS011;721;48.168;12.818;2023-07-20T08:19:46;2.10;;;1.57;;
1454;SDS011;721;48.168;12.818;2023-07-20T08:22:13;1.67;;;1.57;;
1454;SDS011;721;48.168;12.818;2023-07-20T08:24:42;1.60;;;1.50;;
1454;SDS011;721;48.168;12.818;2023-07-20T08:27:09;1.70;;;1.60;;
1454;SDS011;721;48.168;12.818;2023-07-20T08:29:36;2.50;;;1.63;;
1454;SDS011;721;48.168;12.818;2023-07-20T08:32:04;2.00;;;1.77;;
1454;SDS011;721;48.168;12.818;2023-07-20T08:34:32;2.93;;;1.87;;
1454;SDS011;721;48.168;12.818;2023-07-20T08:36:59;2.87;;;1.20;;
1454;SDS011;721;48.168;12.818;2023-07-20T08:39:25;1.93;;;1.70;;
1454;SDS011;721;48.168;12.818;2023-07-20T08:41:54;1.63;;;1.53;;
1454;SDS011;721;48.168;12.818;2023-07-20T08:44:21;1.07;;;0.97;;
1454;SDS011;721;48.168;12.818;2023-07-20T08:46:49;1.47;;;1.37;;
1454;SDS011;721;48.168;12.818;2023-07-20T08:49:17;2.03;;;1.50;;
1454;SDS011;721;48.168;12.818;2023-07-20T08:51:45;1.33;;;1.10;;
1454;SDS011;721;48.168;12.818;2023-07-20T08:54:15;1.77;;;1.67;;
1454;SDS011;721;48.168;12.818;2023-07-20T08:56:43;1.40;;;1.30;;
1454;SDS011;721;48.168;12.818;2023-07-20T08:59:13;1.63;;;1.53;;
1454;SDS011;721;48.168;12.818;2023-07-20T09:01:44;1.43;;;1.33;;
1454;SDS011;721;48.168;12.818;2023-07-20T09:04:11;2.53;;;1.40;;
1454;SDS011;721;48.168;12.818;2023-07-20T09:06:39;1.40;;;1.30;;
1454;SDS011;721;48.168;12.818;2023-07-20T09:09:06;3.00;;;1.20;;
1454;SDS011;721;48.168;12.818;2023-07-20T09:11:33;1.30;;;1.20;;
1454;SDS011;721;48.168;12.818;2023-07-20T09:14:03;1.30;;;1.20;;
1454;SDS011;721;48.168;12.818;2023-07-20T09:16:32;2.03;;;1.77;;
1454;SDS011;721;48.168;12.818;2023-07-20T09:19:12;1.40;;;1.30;;
1454;SDS011;721;48.168;12.818;2023-07-20T09:21:41;1.20;;;1.10;;
1454;SDS011;721;48.168;12.818;2023-07-20T09:24:10;1.70;;;1.60;;
1454;SDS011;721;48.168;12.818;2023-07-20T09:26:40;1.63;;;1.50;;
1454;SDS011;721;48.168;12.818;2023-07-20T09:29:08;1.00;;;1.00;;
1454;SDS011;721;48.168;12.818;2023-07-20T09:31:36;2.80;;;1.27;;
1454;SDS011;721;48.168;12.818;2023-07-20T09:34:04;1.53;;;1.27;;
1454;SDS011;721;48.168;12.818;2023-07-20T09:36:32;1.50;;;1.40;;
1454;SDS011;721;48.168;12.818;2023-07-20T09:39:00;1.33;;;1.23;;
1454;SDS011;721;48.168;12.818;2023-07-20T09:41:29;1.27;;;1.17;;
1454;SDS011;721;48.168;12.818;2023-07-20T09:43:56;1.80;;;1.60;;
1454;SDS011;721;48.168;12.818;2023-07-20T09:46:23;1.40;;;1.30;;
1454;SDS011;721;48.168;12.818;2023-07-20T09:48:54;1.40;;;1.30;;
1454;SDS011;721;48.168;12.818;2023-07-20T09:51:22;1.27;;;1.17;;
1454;SDS011;721;48.168;12.818;2023-07-20T09:53:49;1.57;;;1.30;;
1454;SDS011;721;48.168;12.818;2023-07-20T09:56:19;1.57;;;1.43;;
1454;SDS011;721;48.168;12.818;2023-07-20T09:58:48;1.87;;;1.30;;
1454;SDS011;721;48.168;12.818;2023-07-20T10:01:16;2.10;;;1.50;;
1454;SDS011;721;48.168;12.818;2023-07-20T10:03:47;1.30;;;1.20;;
1454;SDS011;721;48.168;12.818;2023-07-20T10:06:17;1.50;;;1.40;;
1454;SDS011;721;48.168;12.818;2023-07-20T10:08:48;1.33;;;1.23;;
1454;SDS011;721;48.168;12.818;2023-07-20T10:11:18;1.30;;;1.20;;
1454;SDS011;721;48.168;12.818;2023-07-20T10:13:48;1.70;;;1.57;;
1454;SDS011;721;48.168;12.818;2023-07-20T10:16:21;1.60;;;1.50;;
1454;SDS011;721;48.168;12.818;2023-07-20T10:18:55;1.73;;;1.30;;
1454;SDS011;721;48.168;12.818;2023-07-20T10:21:30;1.83;;;1.40;;
1454;SDS011;721;48.168;12.818;2023-07-20T10:23:59;1.50;;;1.40;;
1454;SDS011;721;48.168;12.818;2023-07-20T10:26:27;3.77;;;2.13;;
1454;SDS011;721;48.168;12.818;2023-07-20T10:28:54;1.33;;;1.20;;
1454;SDS011;721;48.168;12.818;2023-07-20T10:31:22;1.17;;;0.93;;
1454;SDS011;721;48.168;12.818;2023-07-20T10:33:51;1.30;;;1.20;;
1454;SDS011;721;48.168;12.818;2023-07-20T10:36:22;1.50;;;1.40;;
1454;SDS011;721;48.168;12.818;2023-07-20T10:38:54;1.70;;;1.23;;
1454;SDS011;721;48.168;12.818;2023-07-20T10:41:23;1.47;;;1.37;;
1454;SDS011;721;48.168;12.818;2023-07-20T10:43:57;2.00;;;1.90;;
1454;SDS011;721;48.168;12.818;2023-07-20T10:46:34;1.40;;;1.30;;
1454;SDS011;721;48.168;12.818;2023-07-20T10:49:11;1.40;;;1.30;;
1454;SDS011;721;48.168;12.818;2023-07-20T10:51:40;1.50;;;1.20;;
1454;SDS011;721;48.168;12.818;2023-07-20T10:54:11;1.50;;;1.40;;
1454;SDS011;721;48.168;12.818;2023-07-20T10:59:48;1.20;;;1.10;;
1454;SDS011;721;48.168;12.818;2023-07-20T11:02:17;1.57;;;1.40;;
1454;SDS011;721;48.168;12.818;2023-07-20T11:04:45;2.13;;;1.93;;
1454;SDS011;721;48.168;12.818;2023-07-20T11:07:14;1.87;;;1.40;;
1454;SDS011;721;48.168;12.818;2023-07-20T11:09:43;1.93;;;1.20;;
1454;SDS011;721;48.168;12.818;2023-07-20T11:12:11;1.30;;;1.20;;
1454;SDS011;721;48.168;12.818;2023-07-20T11:14:40;1.37;;;1.27;;
1454;SDS011;721;48.168;12.818;2023-07-20T11:17:11;1.60;;;1.50;;
1454;SDS011;721;48.168;12.818;2023-07-20T11:19:39;1.20;;;1.10;;
1454;SDS011;721;48.168;12.818;2023-07-20T11:22:06;2.37;;;1.37;;
1454;SDS011;721;48.168;12.818;2023-07-20T11:24:34;1.27;;;1.17;;
1454;SDS011;721;48.168;12.818;2023-07-20T11:27:05;1.70;;;1.07;;
1454;SDS011;721;48.168;12.818;2023-07-20T11:29:32;1.33;;;1.20;;
1454;SDS011;721;48.168;12.818;2023-07-20T11:32:01;1.37;;;1.27;;
1454;SDS011;721;48.168;12.818;2023-07-20T11:34:29;1.30;;;1.20;;
1454;SDS011;721;48.168;12.818;2023-07-20T11:36:57;1.37;;;1.27;;
1454;SDS011;721;48.168;12.818;2023-07-20T11:39:24;1.07;;;1.00;;
1454;SDS011;721;48.168;12.818;2023-07-20T11:41:52;1.33;;;1.10;;
1454;SDS011;721;48.168;12.818;2023-07-20T11:44:21;2.17;;;1.10;;
1454;SDS011;721;48.168;12.818;2023-07-20T11:46:51;0.90;;;0.90;;
1454;SDS011;721;48.168;12.818;2023-07-20T11:49:25;1.17;;;1.10;;
1454;SDS011;721;48.168;12.818;2023-07-20T11:51:53;1.20;;;1.10;;
1454;SDS011;721;48.168;12.818;2023-07-20T11:54:21;1.33;;;1.23;;
1454;SDS011;721;48.168;12.818;2023-07-20T11:56:52;1.23;;;1.13;;
1454;SDS011;721;48.168;12.818;2023-07-20T11:59:21;1.40;;;1.30;;
1454;SDS011;721;48.168;12.818;2023-07-20T12:01:48;1.30;;;1.20;;
1454;SDS011;721;48.168;12.818;2023-07-20T12:04:15;1.47;;;1.07;;
1454;SDS011;721;48.168;12.818;2023-07-20T12:06:41;1.43;;;1.10;;
1454;SDS011;721;48.168;12.818;2023-07-20T12:09:12;1.83;;;1.20;;
1454;SDS011;721;48.168;12.818;2023-07-20T12:11:42;1.23;;;1.13;;
1454;SDS011;721;48.168;12.818;2023-07-20T12:14:10;1.40;;;1.30;;
1454;SDS011;721;48.168;12.818;2023-07-20T12:16:38;1.10;;;1.00;;
1454;SDS011;721;48.168;12.818;2023-07-20T12:19:05;2.30;;;1.20;;
1454;SDS011;721;48.168;12.818;2023-07-20T12:21:34;1.10;;;1.00;;
1454;SDS011;721;48.168;12.818;2023-07-20T12:24:02;1.63;;;1.53;;
1454;SDS011;721;48.168;12.818;2023-07-20T12:26:30;1.83;;;1.20;;
1454;SDS011;721;48.168;12.818;2023-07-20T12:28:57;0.97;;;0.87;;
1454;SDS011;721;48.168;12.818;2023-07-20T12:31:24;1.40;;;1.30;;
1454;SDS011;721;48.168;12.818;2023-07-20T12:33:53;1.20;;;1.10;;
1454;SDS011;721;48.168;12.818;2023-07-20T12:36:21;1.10;;;1.00;;
1454;SDS011;721;48.168;12.818;2023-07-20T12:38:48;3.70;;;1.27;;
1454;SDS011;721;48.168;12.818;2023-07-20T12:41:15;1.23;;;1.13;;
1454;SDS011;721;48.168;12.818;2023-07-20T12:43:42;1.30;;;1.20;;
1454;SDS011;721;48.168;12.818;2023-07-20T12:46:10;1.60;;;1.50;;
1454;SDS011;721;48.168;12.818;2023-07-20T12:48:38;1.33;;;1.23;;
1454;SDS011;721;48.168;12.818;2023-07-20T12:51:08;1.73;;;1.50;;
1454;SDS011;721;48.168;12.818;2023-07-20T12:53:36;0.90;;;0.90;;
1454;SDS011;721;48.168;12.818;2023-07-20T12:56:04;1.53;;;1.37;;
1454;SDS011;721;48.168;12.818;2023-07-20T12:58:31;1.30;;;1.13;;
1454;SDS011;721;48.168;12.818;2023-07-20T13:00:57;1.30;;;1.20;;
1454;SDS011;721;48.168;12.818;2023-07-20T13:03:24;1.40;;;1.30;;
1454;SDS011;721;48.168;12.818;2023-07-20T13:05:51;1.13;;;1.03;;
1454;SDS011;721;48.168;12.818;2023-07-20T13:08:19;1.00;;;1.00;;
1454;SDS011;721;48.168;12.818;2023-07-20T13:10:50;1.27;;;1.17;;
1454;SDS011;721;48.168;12.818;2023-07-20T13:13:17;1.37;;;1.13;;
1454;SDS011;721;48.168;12.818;2023-07-20T13:15:44;1.47;;;1.37;;
1454;SDS011;721;48.168;12.818;2023-07-20T13:18:11;1.00;;;0.90;;
1454;SDS011;721;48.168;12.818;2023-07-20T13:20:38;0.90;;;0.90;;
1454;SDS011;721;48.168;12.818;2023-07-20T13:23:05;1.40;;;1.30;;
1454;SDS011;721;48.168;12.818;2023-07-20T13:25:33;1.30;;;1.20;;
1454;SDS011;721;48.168;12.818;2023-07-20T13:28:00;1.53;;;1.43;;
1454;SDS011;721;48.168;12.818;2023-07-20T13:30:27;2.60;;;1.30;;
1454;SDS011;721;48.168;12.818;2023-07-20T13:32:54;1.73;;;1.63;;
1454;SDS011;721;48.168;12.818;2023-07-20T13:35:21;1.20;;;1.10;;
1454;SDS011;721;48.168;12.818;2023-07-20T13:37:48;1.23;;;1.00;;
1454;SDS011;721;48.168;12.818;2023-07-20T13:40:15;1.03;;;0.93;;
1454;SDS011;721;48.168;12.818;2023-07-20T13:42:45;1.33;;;1.23;;
1454;SDS011;721;48.168;12.818;2023-07-20T13:45:12;1.23;;;1.13;;
1454;SDS011;721;48.168;12.818;2023-07-20T13:47:38;1.33;;;1.10;;
1454;SDS011;721;48.168;12.818;2023-07-20T13:50:06;1.40;;;1.30;;
1454;SDS011;721;48.168;12.818;2023-07-20T13:52:33;1.33;;;1.23;;
1454;SDS011;721;48.168;12.818;2023-07-20T13:55:00;1.23;;;1.13;;
1454;SDS011;721;48.168;12.818;2023-07-20T13:57:27;1.30;;;1.20;;
1454;SDS011;721;48.168;12.818;2023-07-20T13:59:55;1.20;;;1.10;;
1454;SDS011;721;48.168;12.818;2023-07-20T14:02:22;1.53;;;1.43;;
1454;SDS011;721;48.168;12.818;2023-07-20T14:04:49;2.30;;;1.30;;
1454;SDS011;721;48.168;12.818;2023-07-20T14:07:15;2.03;;;1.30;;
1454;SDS011;721;48.168;12.818;2023-07-20T14:09:42;1.77;;;1.63;;
1454;SDS011;721;48.168;12.818;2023-07-20T14:12:09;3.33;;;1.70;;
1454;SDS011;721;48.168;12.818;2023-07-20T14:14:39;1.20;;;1.10;;
1454;SDS011;721;48.168;12.818;2023-07-20T14:17:07;1.57;;;1.10;;
1454;SDS011;721;48.168;12.818;2023-07-20T14:19:34;1.80;;;1.50;;
1454;SDS011;721;48.168;12.818;2023-07-20T14:22:03;1.20;;;1.10;;
1454;SDS011;721;48.168;12.818;2023-07-20T14:24:31;1.67;;;1.57;;
1454;SDS011;721;48.168;12.818;2023-07-20T14:26:58;1.00;;;1.00;;
1454;SDS011;721;48.168;12.818;2023-07-20T14:29:25;1.30;;;1.20;;
1454;SDS011;721;48.168;12.818;2023-07-20T14:31:53;1.43;;;1.30;;
1454;SDS011;721;48.168;12.818;2023-07-20T14:34:21;1.27;;;1.17;;
1454;SDS011;721;48.168;12.818;2023-07-20T14:36:48;1.97;;;1.30;;
1454;SDS011;721;48.168;12.818;2023-07-20T14:39:14;1.33;;;1.20;;
1454;SDS011;721;48.168;12.818;2023-07-20T14:41:41;3.43;;;1.30;;
1454;SDS011;721;48.168;12.818;2023-07-20T14:44:08;1.03;;;0.97;;
1454;SDS011;721;48.168;12.818;2023-07-20T14:46:35;1.20;;;1.10;;
1454;SDS011;721;48.168;12.818;2023-07-20T14:49:02;1.40;;;1.27;;
1454;SDS011;721;48.168;12.818;2023-07-20T14:51:30;4.03;;;1.60;;
1454;SDS011;721;48.168;12.818;2023-07-20T14:53:58;1.30;;;1.20;;
1454;SDS011;721;48.168;12.818;2023-07-20T14:56:25;1.20;;;1.10;;
1454;SDS011;721;48.168;12.818;2023-07-20T14:58:52;1.77;;;1.40;;
1454;SDS011;721;48.168;12.818;2023-07-20T15:01:19;1.30;;;1.20;;
1454;SDS011;721;48.168;12.818;2023-07-20T15:03:46;1.63;;;1.13;;
1454;SDS011;721;48.168;12.818;2023-07-20T15:06:15;1.10;;;1.00;;
1454;SDS011;721;48.168;12.818;2023-07-20T15:08:43;1.63;;;1.20;;
1454;SDS011;721;48.168;12.818;2023-07-20T15:11:10;1.20;;;1.10;;
1454;SDS011;721;48.168;12.818;2023-07-20T15:13:37;1.67;;;1.57;;
1454;SDS011;721;48.168;12.818;2023-07-20T15:16:03;2.40;;;1.53;;
1454;SDS011;721;48.168;12.818;2023-07-20T15:18:30;5.43;;;1.50;;
1454;SDS011;721;48.168;12.818;2023-07-20T15:20:57;1.07;;;1.03;;
1454;SDS011;721;48.168;12.818;2023-07-20T15:23:24;1.30;;;1.20;;